Hamdan Al Kamali

Recruteur en chef - Al Nasr
20 Nov 2027
Samedi
Processus

Personnalité

Adaptabilité (6) Ambition (5) Controverse (6) Loyauté (5) Pression (5) Professionnalisme (6) Sportivité (11) Tempérament (4)

Profil

Style d'entraînement Démocratique
Diplôme Continental A
Détermination 8
Gestion des joueurs 9
Motivation 11
Discipline 6
Satisfaction professionnelle
55%
Fatigue
0%
Rôle Recruteur en chef
Salaire 18.8K p/s
Contrat 14.03.2028

Performance

Comportement Bon
Efficacité de l'entraînement
25%
Développement des joueurs
45%
Prévention des blessures
60%
Mise en place tactique
40%

Événements récents

A participé à une réunion de recrutement 7j
A participé à une réunion de recrutement 14j
A observé un match 14j
A participé à une réunion de recrutement 21j
A observé un match 21j
A participé à une réunion de recrutement 28j
A observé un match 28j
A observé un match 35j

Suivi en cours

141
Joueur Club Statut Capacité Confiance Observé Dernière observation Dernier vote
Riley Owen Wycombe Wanderers Négociation 111 / 120 40% 6 06.07.2027 -
Maeson King Blackpool Actif 108 / 115 40% 3 06.07.2027 -
Joseph Namatane FC Metz Actif 93 / 97 40% 1 06.07.2027 -
Jonathan De Irastorza Levante Actif 122 / 122 40% 12 05.07.2027 -
Martim Cunha Porto Actif 101 / 110 40% 7 05.07.2027 -
Dylan Lawlor Cardiff City Actif 118 / 130 40% 4 05.07.2027 -
Samuel Lucero Defensa y Justicia Actif 121 / 124 40% 6 04.07.2027 -
Lucas Mbamba Westerlo Actif 94 / 88 40% 9 04.07.2027 -
German Ignatov Rostov Actif 98 / 107 40% 4 03.07.2027 -
Olaniyi Saheed Kwara United Actif 86 / 100 40% 4 03.07.2027 -
Matvey Kislyak Lokomotiv Moscow Actif 143 / 151 40% 5 01.07.2027 -
Ronan Kpakio Brentford Actif 114 / 127 40% 5 01.07.2027 -
Riquelme Thompson-Jones Shrewsbury Town Actif 109 / 120 40% 1 01.07.2027 -
Lorenzo Palmisani Frosinone Actif 130 / 142 40% 1 30.06.2027 -
Wladimiro Falcone Lecce Actif 136 / 137 40% 1 30.06.2027 -
Simone Kosijer Triestina Actif 100 / 95 40% 5 29.06.2027 -
Andrey Ivlev Nizhniy Novgorod Actif 109 / 117 40% 4 29.06.2027 -
Jofre Torrents Ajax Actif 128 / 129 40% 3 28.06.2027 -
Tiago Freitas Benfica Actif 112 / 126 40% 4 28.06.2027 -
Joe Lumley Sheffield Wednesday Perdu 121 / 126 40% 2 21.06.2027 -
George Wickens Lincoln City Actif 117 / 124 40% 2 21.06.2027 -
Nicolas Schmid Portsmouth Actif 121 / 132 40% 1 21.06.2027 -
Zach Hemming Chesterfield Actif 111 / 103 40% 1 14.06.2027 -
Manuel Lanzini Al Jazira Perdu 126 / 131 72% 1 01.06.2027 -
Taye Ashby-Hammond Cheltenham Town Actif 112 / 110 40% 1 31.05.2027 -
Adrian Šemper Al-Fateh Actif 131 / 142 40% 1 31.05.2027 -
Facundo Di Biasi Getafe Actif 117 / 132 40% 5 30.05.2027 -
Gonçalo Ribeiro Porto Actif 95 / 93 40% 2 30.05.2027 -
Lisandro Tejada San Martín SJ Actif 97 / 108 40% 1 30.05.2027 -
Benedek Erdélyi Debrecen Actif 104 / 97 40% 2 28.05.2027 -
Esteban Ojeda Estudiantes Actif 88 / 103 40% 2 28.05.2027 -
Agustín Nogueira Barracas Central Actif 93 / 105 40% 1 26.05.2027 -
Diego Mascardi Spezia Perdu 129 / 128 40% 1 26.05.2027 -
Alex Villa González Atlético Tucumán Actif 85 / 90 40% 1 26.05.2027 -
Moncef Zekri Sporting CP Actif 98 / 107 40% 6 22.05.2027 -
Godwin Oham Warri Wolves Actif 94 / 87 40% 1 19.05.2027 -
Juan David Arizala Udinese Actif 129 / 132 40% 2 18.05.2027 -
Jacopo Bacci Sorrento Actif 101 / 111 40% 2 18.05.2027 -
Diego Rossi Forli Actif 85 / 96 40% 6 17.05.2027 -
Surprise Manthosi Polokwane City Actif 92 / 96 40% 4 14.05.2027 -
Karim Coulibaly RC Strasbourg Actif 125 / 123 40% 7 13.05.2027 -
Riyad Idrissi Torino Actif 119 / 135 40% 6 13.05.2027 -
Mattia Puzone Siracusa Actif 102 / 98 40% 3 11.05.2027 -
Tommaso Cecotti Carpi Actif 87 / 96 40% 6 10.05.2027 -
Mandla Mokotjo SuperSport United Actif 90 / 100 40% 4 08.05.2027 -
Sergio Castillo Cortulua Actif 106 / 102 40% 3 08.05.2027 -
Ibrahim Sabiu Bendel Insurance Actif 83 / 90 40% 1 06.05.2027 -
Sascha Britschgi Catanzaro Actif 124 / 134 40% 2 30.04.2027 -
Lisandro Musso Central Córdoba SdE Actif 95 / 101 40% 1 29.04.2027 -
Juan González Atlético Tucumán Actif 83 / 84 40% 1 27.04.2027 -
Joaquín Giudice Platense Actif 81 / 96 40% 1 27.04.2027 -
Luca Lipani Frosinone Actif 121 / 129 40% 6 26.04.2027 -
David Ozoh Derby County Actif 117 / 120 40% 9 24.04.2027 -
Leandro Martins Benfica Actif 96 / 88 40% 8 23.04.2027 -
Luke Campbell Newport County Actif 95 / 96 40% 2 23.04.2027 -
Tommaso Orsini Sambenedettese Actif 98 / 104 40% 2 23.04.2027 -
Matías Gómez Valencia Actif 109 / 111 40% 3 19.04.2027 -
Tomás Silva Lanús Actif 87 / 76 40% 1 19.04.2027 -
Ahmed Gaber Smouha Actif 68 / 95 40% 2 15.04.2027 -
Eivind Helland Bologna Actif 135 / 136 40% 5 09.04.2027 -
Edwin Asamoah Berekum Chelsea Actif 81 / 81 40% 2 03.04.2027 -
Ioshua Sánchez Barracas Central Actif 75 / 101 40% 1 03.04.2027 -
Patricio Flores Defensa y Justicia Actif 88 / 83 40% 1 03.04.2027 -
Hamed Al-Shanqeeti Al-Ittihad Actif 87 / 98 40% 2 02.04.2027 -
Mateo Rodríguez Quilmes Actif 80 / 94 40% 1 02.04.2027 -
Facundo Binzugna Boca Juniors Actif 76 / 93 40% 1 30.03.2027 -
Luca Fernández Barracas Central Actif 78 / 88 40% 2 27.03.2027 -
Jeremías Robledo Acosta Newell's Old Boys Actif 84 / 91 40% 2 25.03.2027 -
Alexandr Burkov Rodina M Actif 70 / 80 40% 1 19.03.2027 -
Farhah Al-Shamrani Al-Ittihad Actif 88 / 98 40% 1 19.03.2027 -
Ramiro Buratti River Plate Actif 92 / 108 40% 1 19.03.2027 -
Rodrigo Russo Vélez Actif 86 / 91 40% 1 18.03.2027 -
Hernán Sanabria Barracas Central Actif 92 / 89 40% 1 18.03.2027 -
Ignacio Abarza Huracán Actif 80 / 104 40% 1 17.03.2027 -
Tomás Escobar Independiente Rivadavia Actif 87 / 99 40% 1 17.03.2027 -
Tobías Andrada Betis Actif 110 / 126 40% 2 15.03.2027 -
Daniel Kelly Derby County Actif 115 / 109 40% 5 14.03.2027 -
Damián Constanzo River Plate Actif 87 / 88 40% 1 14.03.2027 -
Alex Mosquera Barranquilla Actif 78 / 86 40% 1 13.03.2027 -
César Bravo Barranquilla Actif 82 / 82 40% 1 05.03.2027 -
Máximo Gómez Vélez Actif 72 / 106 40% 1 05.03.2027 -
Gianluca Valdiviezo Colón Actif 93 / 101 40% 1 05.03.2027 -
Sebastián Flores Rayo Vallecano Actif 103 / 112 40% 1 05.03.2027 -
Valentín Catalán Argentinos Juniors Actif 82 / 83 40% 1 02.03.2027 -
Samuele Diodato Lumezzane Actif 97 / 106 40% 1 26.02.2027 -
Sean Fusire Sheffield Wednesday Actif 109 / 109 40% 2 19.02.2027 -
Luther Ngcobo Ajax Cape Town Actif 103 / 110 40% 2 11.02.2027 -
Ignacio Perruzzi Celta Actif 118 / 122 40% 1 29.01.2027 -
Salem Al Naqbi Al Shabab Actif 111 / 115 40% 3 28.01.2027 -
Sergey Chernov Zenit Actif 76 / 92 40% 3 28.01.2027 -
Théo Hansen Hobro Actif 100 / 87 40% 1 28.01.2027 -
Mohamed Samir ENPPI Actif 82 / 80 40% 1 27.01.2027 -
Maycon Cleiton Zira Perdu 98 / 109 40% 2 01.01.2027 -
Alexandr Maximenko Spartak Moscow Actif 129 / 126 40% 1 01.01.2027 -
Mfundo Vilakazi Kaizer Chiefs Actif 102 / 118 40% 3 29.12.2026 -
Matheus Gonçalves Al-Ahli Actif 131 / 128 40% 9 27.12.2026 -
Lander Astiazarán Real Sociedad Actif 98 / 116 40% 3 27.12.2026 -
Alpha Touré FC Metz Actif 118 / 120 40% 1 26.12.2026 -
Bradley Zwane SuperSport United Actif 100 / 113 40% 1 23.12.2026 -
Gorka Gorosabel Real Sociedad Actif 113 / 105 40% 6 18.12.2026 -
Dani Díaz Real Sociedad Actif 109 / 128 40% 3 18.12.2026 -
Darío Ramírez Real Sociedad Actif 92 / 93 40% 4 15.12.2026 -
Thalys Almería Actif 118 / 119 40% 1 15.12.2026 -
Faisal Al-Abdulwahed Al-Fateh Actif 91 / 92 40% 5 14.12.2026 -
Nino Marcelli Slovan Bratislava Refusé 117 / 129 40% 5 14.12.2026 Refuser
Monty Batlhabane Polokwane City Actif 95 / 84 40% 1 07.12.2026 -
Asanele Bonani Chippa United Actif 90 / 102 40% 2 03.12.2026 -
Fahad Al Shamsi Al Shabab Actif 108 / 115 40% 1 29.11.2026 -
Kirill Cheburakov Rostov Actif 73 / 87 40% 1 28.11.2026 -
Yusuf Akçiçek Al-Hilal Actif 121 / 129 40% 1 27.11.2026 -
Awad Aman Hajer Actif 74 / 72 40% 3 25.11.2026 -
Dramane Kamagaté USM Alger Actif 101 / 107 40% 3 25.11.2026 -
Alexei Dominguez Pachuca Actif 113 / 118 40% 3 24.11.2026 -
Xavier Biscayzacú Sporting CP Actif 118 / 132 40% 2 22.11.2026 -
Ahmed Khodary Zamalek Actif 89 / 102 40% 3 20.11.2026 -
Asher Agbinone Baniyas Actif 94 / 97 40% 1 18.11.2026 -
Facundo Gulli San Lorenzo Actif 115 / 108 40% 1 16.11.2026 -
Christopher Bonsu Baah Al-Qadisiyah Actif 121 / 117 40% 7 13.11.2026 -
Tomás Aranda Boca Juniors Actif 104 / 108 40% 2 11.11.2026 -
Amir Alaa Al Ahly Actif 91 / 77 40% 2 09.11.2026 -
Gady Beyuku Blackburn Rovers Actif 105 / 114 40% 1 08.11.2026 -
Mateo Aguiar Defensa y Justicia Actif 104 / 109 40% 2 22.10.2026 -
João Simões Sporting CP Actif 123 / 135 40% 1 22.10.2026 -
Younes El Bahraoui Al-Taawoun Actif 105 / 114 40% 2 19.10.2026 -
Bautista Carboni Defensores Unidos Actif 114 / 118 40% 4 09.10.2026 -
Hakim Sulemana SJK Actif 85 / 107 40% 1 09.10.2026 -
Lucas Richarte Temperley Actif 100 / 109 40% 2 01.10.2026 -
Juan Velázquez Atlético Madrid Actif 121 / 130 40% 1 01.10.2026 -
Santiago Segovia Rosario Central Actif 111 / 129 40% 1 30.09.2026 -
Lautaro Mora Huracán Actif 114 / 99 40% 1 28.09.2026 -
Dylan Gorosito Boca Juniors Actif 108 / 123 40% 1 24.09.2026 -
Vegard Haaland Molde Actif 100 / 97 40% 1 23.09.2026 -
Luka Andrade Montevideo City Torque Actif 87 / 108 40% 1 18.09.2026 -
Frédéric Lopez Olympique de Marseille Actif 79 / 90 40% 1 18.09.2026 -
Abdoulkarim Traoré Al Ain Actif 128 / 129 40% 2 17.09.2026 -
Sergey Pinyaev Lokomotiv Moscow Actif 119 / 118 40% 1 15.09.2026 -
Luca Regiardo Newell's Old Boys Actif 109 / 114 40% 1 12.09.2026 -
Sam Chambers Leeds United Actif 107 / 117 40% 1 10.09.2026 -
Bautista Lo Menzo Independiente Actif 83 / 106 40% 1 17.08.2026 -
Víctor Cabezas Union Magdalena Actif 120 / 119 40% 1 01.08.2026 -
Julen Agirrezabala Racing Santander Actif 143 / 139 40% 1 01.08.2026 -